TVQ6613 LBBG-LZIB
Flight info
| Callsign | TVQ6613 |
|---|---|
| Flight time | 1h 34m |
| Altitude | 38000 |
| Route | BUVAK T777 NUPVU L602 KOMAN DCT NARKA DCT GELKA DCT KALIF DCT TURIS/N0380F240 N190 NIT |
| Aircraft | B38M/M-SDE1FGHILORVWXY/HB1 |
Departure
| Time | 2026-05-05 17:57 |
|---|---|
| Airport | Burgas Airport (LBBG) |
Arrival
| Time | 2026-05-05 19:31 |
|---|---|
| Airport | M. R. Štefánik Airport (LZIB) |
| Time | Latitude | Longitude | Altitude | Speed | Heading |
|---|---|---|---|---|---|
| 2026-05-05 17:36 | 42.56591 | 27.51345 | 176 ft | 0 kts | 3° |
| 2026-05-05 17:50 | 42.56588 | 27.51345 | 203 ft | 3 kts | 3° |
| 2026-05-05 17:50 | 42.56564 | 27.51347 | 176 ft | 3 kts | 345° |
| 2026-05-05 17:50 | 42.56551 | 27.51356 | 176 ft | 2 kts | 305° |
| 2026-05-05 17:50 | 42.56548 | 27.51369 | 176 ft | 2 kts | 261° |
| 2026-05-05 17:51 | 42.56551 | 27.51384 | 176 ft | 2 kts | 241° |
| 2026-05-05 17:51 | 42.56557 | 27.51396 | 176 ft | 2 kts | 232° |
| 2026-05-05 17:51 | 42.56564 | 27.51407 | 176 ft | 2 kts | 226° |
| 2026-05-05 17:51 | 42.56567 | 27.51411 | 176 ft | 0 kts | 225° |
| 2026-05-05 17:53 | 42.56560 | 27.51402 | 176 ft | 4 kts | 225° |
| 2026-05-05 17:53 | 42.56514 | 27.51337 | 176 ft | 15 kts | 227° |
| 2026-05-05 17:53 | 42.56432 | 27.51207 | 176 ft | 15 kts | 228° |
| 2026-05-05 17:53 | 42.56367 | 27.51111 | 176 ft | 18 kts | 227° |
| 2026-05-05 17:54 | 42.56290 | 27.50996 | 176 ft | 16 kts | 228° |
| 2026-05-05 17:54 | 42.56205 | 27.50869 | 176 ft | 14 kts | 228° |
| 2026-05-05 17:54 | 42.56124 | 27.50748 | 176 ft | 20 kts | 227° |
| 2026-05-05 17:54 | 42.56026 | 27.50598 | 176 ft | 22 kts | 229° |
| 2026-05-05 17:55 | 42.55919 | 27.50437 | 175 ft | 24 kts | 227° |
| 2026-05-05 17:55 | 42.55849 | 27.50276 | 175 ft | 16 kts | 283° |
| 2026-05-05 17:55 | 42.55902 | 27.50213 | 175 ft | 10 kts | 346° |
| 2026-05-05 17:55 | 42.55993 | 27.50209 | 174 ft | 17 kts | 9° |
| 2026-05-05 17:56 | 42.56052 | 27.50253 | 174 ft | 0 kts | 44° |
| 2026-05-05 17:56 | 42.56068 | 27.50273 | 175 ft | 9 kts | 44° |
| 2026-05-05 17:56 | 42.56266 | 27.50540 | 177 ft | 79 kts | 44° |
| 2026-05-05 17:57 | 42.56837 | 27.51294 | 176 ft | 147 kts | 45° |
| 2026-05-05 17:57 | 42.57627 | 27.52360 | 636 ft | 165 kts | 44° |
| 2026-05-05 17:57 | 42.58475 | 27.53421 | 1422 ft | 167 kts | 40° |
| 2026-05-05 17:57 | 42.59447 | 27.54294 | 2127 ft | 173 kts | 29° |
| 2026-05-05 17:58 | 42.60587 | 27.55060 | 2528 ft | 193 kts | 27° |
| 2026-05-05 17:58 | 42.61915 | 27.55719 | 2865 ft | 217 kts | 13° |
| 2026-05-05 17:58 | 42.63507 | 27.55838 | 3236 ft | 241 kts | 350° |
| 2026-05-05 17:58 | 42.65079 | 27.55228 | 4281 ft | 232 kts | 345° |
| 2026-05-05 17:59 | 42.66546 | 27.54341 | 5159 ft | 232 kts | 323° |
| 2026-05-05 17:59 | 42.67812 | 27.52964 | 5996 ft | 236 kts | 324° |
| 2026-05-05 17:59 | 42.69132 | 27.51613 | 6781 ft | 239 kts | 326° |
| 2026-05-05 17:59 | 42.70474 | 27.50262 | 7562 ft | 241 kts | 326° |
| 2026-05-05 18:00 | 42.71828 | 27.48914 | 8341 ft | 243 kts | 327° |
| 2026-05-05 18:00 | 42.73207 | 27.47549 | 9122 ft | 246 kts | 327° |
| 2026-05-05 18:00 | 42.74580 | 27.46197 | 9899 ft | 248 kts | 328° |
| 2026-05-05 18:00 | 42.76002 | 27.44797 | 10625 ft | 251 kts | 328° |
| 2026-05-05 18:01 | 42.77424 | 27.43400 | 11358 ft | 253 kts | 328° |
| 2026-05-05 18:01 | 42.78844 | 27.42003 | 12102 ft | 257 kts | 328° |
| 2026-05-05 18:01 | 42.80306 | 27.40567 | 12855 ft | 260 kts | 328° |
| 2026-05-05 18:01 | 42.81784 | 27.39113 | 13623 ft | 264 kts | 328° |
| 2026-05-05 18:02 | 42.83278 | 27.37642 | 14321 ft | 267 kts | 328° |
| 2026-05-05 18:02 | 42.84789 | 27.36155 | 15050 ft | 269 kts | 328° |
| 2026-05-05 18:02 | 42.86316 | 27.34650 | 15773 ft | 272 kts | 328° |
| 2026-05-05 18:02 | 42.87862 | 27.33127 | 16470 ft | 275 kts | 328° |
| 2026-05-05 18:03 | 42.89423 | 27.31587 | 17187 ft | 278 kts | 328° |
| 2026-05-05 18:03 | 42.91010 | 27.30022 | 17830 ft | 282 kts | 328° |
| 2026-05-05 18:03 | 42.92625 | 27.28428 | 18303 ft | 295 kts | 328° |
| 2026-05-05 18:03 | 42.94347 | 27.26728 | 18505 ft | 314 kts | 328° |
| 2026-05-05 18:04 | 42.96150 | 27.24947 | 18658 ft | 333 kts | 327° |
| 2026-05-05 18:04 | 42.98079 | 27.23041 | 18848 ft | 350 kts | 327° |
| 2026-05-05 18:04 | 43.00076 | 27.21063 | 19265 ft | 357 kts | 327° |
| 2026-05-05 18:04 | 43.02095 | 27.19062 | 19866 ft | 360 kts | 327° |
| 2026-05-05 18:05 | 43.04128 | 27.17045 | 20448 ft | 363 kts | 327° |
| 2026-05-05 18:05 | 43.06183 | 27.15004 | 21018 ft | 366 kts | 327° |
| 2026-05-05 18:05 | 43.08253 | 27.12946 | 21578 ft | 370 kts | 327° |
| 2026-05-05 18:05 | 43.10340 | 27.10870 | 22129 ft | 373 kts | 326° |
| 2026-05-05 18:06 | 43.12448 | 27.08772 | 22670 ft | 376 kts | 326° |
| 2026-05-05 18:06 | 43.13853 | 27.07372 | 23037 ft | 378 kts | 326° |
| 2026-05-05 18:06 | 43.16717 | 27.04516 | 23724 ft | 382 kts | 326° |
| 2026-05-05 18:06 | 43.18875 | 27.02362 | 24157 ft | 385 kts | 326° |
| 2026-05-05 18:07 | 43.21022 | 27.00216 | 24580 ft | 388 kts | 326° |
| 2026-05-05 18:07 | 43.23210 | 26.98029 | 24997 ft | 391 kts | 326° |
| 2026-05-05 18:07 | 43.25416 | 26.95821 | 25420 ft | 394 kts | 326° |
| 2026-05-05 18:07 | 43.27633 | 26.93599 | 25838 ft | 396 kts | 326° |
| 2026-05-05 18:08 | 43.29867 | 26.91359 | 26248 ft | 399 kts | 326° |
| 2026-05-05 18:08 | 43.32120 | 26.89097 | 26662 ft | 401 kts | 326° |
| 2026-05-05 18:08 | 43.34376 | 26.86831 | 27060 ft | 404 kts | 325° |
| 2026-05-05 18:08 | 43.36660 | 26.84534 | 27460 ft | 406 kts | 325° |
| 2026-05-05 18:09 | 43.38942 | 26.82237 | 27855 ft | 409 kts | 325° |
| 2026-05-05 18:09 | 43.41251 | 26.79910 | 28244 ft | 411 kts | 325° |
| 2026-05-05 18:09 | 43.43564 | 26.77578 | 28630 ft | 413 kts | 325° |
| 2026-05-05 18:09 | 43.45888 | 26.75232 | 29017 ft | 415 kts | 325° |
| 2026-05-05 18:10 | 43.48223 | 26.72872 | 29397 ft | 417 kts | 325° |
| 2026-05-05 18:10 | 43.50569 | 26.70498 | 29773 ft | 419 kts | 325° |
| 2026-05-05 18:10 | 43.52926 | 26.68112 | 30113 ft | 422 kts | 325° |
| 2026-05-05 18:10 | 43.55298 | 26.65709 | 30402 ft | 424 kts | 325° |
| 2026-05-05 18:11 | 43.57681 | 26.63291 | 30690 ft | 426 kts | 325° |
| 2026-05-05 18:11 | 43.60073 | 26.60861 | 30981 ft | 428 kts | 325° |
| 2026-05-05 18:11 | 43.62477 | 26.58418 | 31281 ft | 430 kts | 325° |
| 2026-05-05 18:11 | 43.64892 | 26.55960 | 31574 ft | 431 kts | 325° |
| 2026-05-05 18:12 | 43.67313 | 26.53494 | 31863 ft | 433 kts | 325° |
| 2026-05-05 18:12 | 43.69744 | 26.51015 | 32167 ft | 434 kts | 325° |
| 2026-05-05 18:12 | 43.72173 | 26.48535 | 32565 ft | 433 kts | 325° |
| 2026-05-05 18:12 | 43.74558 | 26.46098 | 32974 ft | 432 kts | 325° |
| 2026-05-05 18:13 | 43.77002 | 26.43599 | 33359 ft | 431 kts | 325° |
| 2026-05-05 18:13 | 43.79386 | 26.41157 | 33739 ft | 430 kts | 325° |
| 2026-05-05 18:13 | 43.81785 | 26.38697 | 34100 ft | 429 kts | 325° |
| 2026-05-05 18:13 | 43.84185 | 26.36234 | 34419 ft | 429 kts | 325° |
| 2026-05-05 18:14 | 43.86585 | 26.33769 | 34699 ft | 429 kts | 325° |
| 2026-05-05 18:14 | 43.88984 | 26.31303 | 34977 ft | 429 kts | 325° |
| 2026-05-05 18:14 | 43.91374 | 26.28843 | 35258 ft | 429 kts | 325° |
| 2026-05-05 18:14 | 43.93775 | 26.26370 | 35543 ft | 428 kts | 325° |
| 2026-05-05 18:15 | 43.96161 | 26.23909 | 35818 ft | 428 kts | 324° |
| 2026-05-05 18:15 | 43.98518 | 26.21371 | 36072 ft | 429 kts | 319° |
| 2026-05-05 18:15 | 44.00718 | 26.18567 | 36324 ft | 428 kts | 319° |
| 2026-05-05 18:15 | 44.02931 | 26.15799 | 36549 ft | 428 kts | 320° |
| 2026-05-05 18:16 | 44.05151 | 26.13045 | 36784 ft | 428 kts | 320° |
| 2026-05-05 18:16 | 44.07352 | 26.10325 | 37016 ft | 428 kts | 320° |
| 2026-05-05 18:16 | 44.09578 | 26.07576 | 37235 ft | 428 kts | 320° |
| 2026-05-05 18:16 | 44.11806 | 26.04823 | 37463 ft | 428 kts | 320° |
| 2026-05-05 18:17 | 44.14027 | 26.02075 | 37668 ft | 428 kts | 319° |
| 2026-05-05 18:17 | 44.16252 | 25.99321 | 37891 ft | 428 kts | 319° |
| 2026-05-05 18:17 | 44.18476 | 25.96564 | 38081 ft | 428 kts | 319° |
| 2026-05-05 18:17 | 44.20702 | 25.93803 | 38266 ft | 428 kts | 319° |
| 2026-05-05 18:18 | 44.22915 | 25.91054 | 38456 ft | 428 kts | 319° |
| 2026-05-05 18:18 | 44.25140 | 25.88289 | 38628 ft | 428 kts | 319° |
| 2026-05-05 18:18 | 44.27366 | 25.85518 | 38766 ft | 428 kts | 319° |
| 2026-05-05 18:18 | 44.29584 | 25.82756 | 38887 ft | 428 kts | 319° |
| 2026-05-05 18:19 | 44.31801 | 25.79990 | 39004 ft | 428 kts | 319° |
| 2026-05-05 18:19 | 44.34027 | 25.77211 | 39120 ft | 428 kts | 319° |
| 2026-05-05 18:19 | 44.36253 | 25.74429 | 39236 ft | 428 kts | 319° |
| 2026-05-05 18:19 | 44.38467 | 25.71659 | 39347 ft | 429 kts | 319° |
| 2026-05-05 18:20 | 44.40697 | 25.68865 | 39436 ft | 429 kts | 319° |
| 2026-05-05 18:20 | 44.42920 | 25.66078 | 39539 ft | 429 kts | 319° |
| 2026-05-05 18:20 | 44.45113 | 25.63326 | 39640 ft | 429 kts | 319° |
| 2026-05-05 18:21 | 44.49564 | 25.57730 | 39821 ft | 430 kts | 319° |
| 2026-05-05 18:21 | 44.51785 | 25.54933 | 39956 ft | 429 kts | 319° |
| 2026-05-05 18:21 | 44.54004 | 25.52137 | 39997 ft | 429 kts | 319° |
| 2026-05-05 18:22 | 44.58448 | 25.46526 | 39996 ft | 429 kts | 319° |
| 2026-05-05 18:22 | 44.62882 | 25.40916 | 39989 ft | 429 kts | 319° |
| 2026-05-05 18:23 | 44.67310 | 25.35300 | 39987 ft | 429 kts | 319° |
| 2026-05-05 18:23 | 44.71744 | 25.29667 | 39991 ft | 429 kts | 319° |
| 2026-05-05 18:24 | 44.76144 | 25.24063 | 39992 ft | 429 kts | 319° |
| 2026-05-05 18:24 | 44.80572 | 25.18412 | 39989 ft | 429 kts | 319° |
| 2026-05-05 18:25 | 44.84992 | 25.12759 | 39989 ft | 429 kts | 318° |
| 2026-05-05 18:25 | 44.89413 | 25.07093 | 39992 ft | 429 kts | 319° |
| 2026-05-05 18:26 | 44.93834 | 25.01414 | 39991 ft | 430 kts | 319° |
| 2026-05-05 18:26 | 44.98253 | 24.95725 | 39994 ft | 430 kts | 318° |
| 2026-05-05 18:27 | 45.02671 | 24.90026 | 39997 ft | 430 kts | 318° |
| 2026-05-05 18:27 | 45.07055 | 24.84357 | 40003 ft | 430 kts | 318° |
| 2026-05-05 18:28 | 45.13704 | 24.75737 | 40004 ft | 430 kts | 318° |
| 2026-05-05 18:28 | 45.18081 | 24.70047 | 40005 ft | 430 kts | 318° |
| 2026-05-05 18:29 | 45.22488 | 24.64304 | 40006 ft | 430 kts | 318° |
| 2026-05-05 18:29 | 45.26889 | 24.58557 | 40011 ft | 430 kts | 318° |
| 2026-05-05 18:30 | 45.31287 | 24.52802 | 40013 ft | 430 kts | 318° |
| 2026-05-05 18:30 | 45.35686 | 24.47032 | 40008 ft | 429 kts | 318° |
| 2026-05-05 18:31 | 45.39329 | 24.42245 | 40008 ft | 429 kts | 318° |
| 2026-05-05 18:31 | 45.43714 | 24.36470 | 40009 ft | 429 kts | 318° |
| 2026-05-05 18:32 | 45.48090 | 24.30694 | 40009 ft | 429 kts | 318° |
| 2026-05-05 18:32 | 45.52466 | 24.24906 | 39998 ft | 429 kts | 318° |
| 2026-05-05 18:33 | 45.56838 | 24.19110 | 39984 ft | 429 kts | 318° |
| 2026-05-05 18:33 | 45.61203 | 24.13311 | 39981 ft | 428 kts | 317° |
| 2026-05-05 18:34 | 45.65534 | 24.07544 | 39968 ft | 428 kts | 317° |
| 2026-05-05 18:34 | 45.69890 | 24.01732 | 39968 ft | 428 kts | 317° |
| 2026-05-05 18:35 | 45.74244 | 23.95907 | 39968 ft | 428 kts | 317° |
| 2026-05-05 18:35 | 45.78589 | 23.90082 | 39967 ft | 428 kts | 317° |
| 2026-05-05 18:36 | 45.82929 | 23.84252 | 39974 ft | 428 kts | 317° |
| 2026-05-05 18:36 | 45.87266 | 23.78411 | 39976 ft | 428 kts | 317° |
| 2026-05-05 18:37 | 45.91612 | 23.72546 | 39978 ft | 428 kts | 317° |
| 2026-05-05 18:37 | 45.95922 | 23.66716 | 39979 ft | 428 kts | 317° |
| 2026-05-05 18:38 | 46.00264 | 23.60830 | 39976 ft | 428 kts | 317° |
| 2026-05-05 18:38 | 46.04601 | 23.54936 | 39977 ft | 428 kts | 317° |
| 2026-05-05 18:39 | 46.08933 | 23.49037 | 39978 ft | 429 kts | 317° |
| 2026-05-05 18:39 | 46.13260 | 23.43130 | 39974 ft | 429 kts | 317° |
| 2026-05-05 18:40 | 46.17586 | 23.37211 | 39982 ft | 429 kts | 317° |
| 2026-05-05 18:40 | 46.21910 | 23.31283 | 39991 ft | 429 kts | 317° |
| 2026-05-05 18:41 | 46.26238 | 23.25334 | 39990 ft | 429 kts | 317° |
| 2026-05-05 18:41 | 46.30535 | 23.19416 | 39996 ft | 429 kts | 317° |
| 2026-05-05 18:42 | 46.34852 | 23.13456 | 39998 ft | 429 kts | 316° |
| 2026-05-05 18:42 | 46.39169 | 23.07482 | 40000 ft | 429 kts | 316° |
| 2026-05-05 18:43 | 46.43481 | 23.01501 | 40005 ft | 429 kts | 316° |
| 2026-05-05 18:43 | 46.47793 | 22.95507 | 40001 ft | 429 kts | 316° |
| 2026-05-05 18:44 | 46.52103 | 22.89502 | 39997 ft | 429 kts | 316° |
| 2026-05-05 18:44 | 46.56384 | 22.83522 | 40007 ft | 430 kts | 316° |
| 2026-05-05 18:45 | 46.60691 | 22.77493 | 40006 ft | 430 kts | 316° |
| 2026-05-05 18:45 | 46.64994 | 22.71455 | 40000 ft | 430 kts | 316° |
| 2026-05-05 18:46 | 46.69295 | 22.65407 | 39991 ft | 430 kts | 316° |
| 2026-05-05 18:46 | 46.73593 | 22.59347 | 39990 ft | 430 kts | 316° |
| 2026-05-05 18:47 | 46.77895 | 22.53270 | 39980 ft | 430 kts | 316° |
| 2026-05-05 18:47 | 46.82192 | 22.47182 | 39971 ft | 431 kts | 316° |
| 2026-05-05 18:48 | 46.86491 | 22.41080 | 39969 ft | 430 kts | 315° |
| 2026-05-05 18:48 | 46.90789 | 22.34964 | 39956 ft | 431 kts | 315° |
| 2026-05-05 18:49 | 46.95083 | 22.28841 | 39950 ft | 431 kts | 315° |
| 2026-05-05 18:49 | 46.99376 | 22.22707 | 39945 ft | 431 kts | 315° |
| 2026-05-05 18:50 | 47.03640 | 22.16600 | 39940 ft | 432 kts | 315° |
| 2026-05-05 18:50 | 47.07936 | 22.10433 | 39940 ft | 432 kts | 315° |
| 2026-05-05 18:51 | 47.12225 | 22.04262 | 39943 ft | 432 kts | 315° |
| 2026-05-05 18:51 | 47.16519 | 21.98069 | 39936 ft | 432 kts | 315° |
| 2026-05-05 18:52 | 47.20813 | 21.91862 | 39935 ft | 432 kts | 315° |
| 2026-05-05 18:52 | 47.25042 | 21.85575 | 39925 ft | 432 kts | 308° |
| 2026-05-05 18:53 | 47.28791 | 21.78653 | 39923 ft | 433 kts | 308° |
| 2026-05-05 18:53 | 47.32537 | 21.71698 | 39916 ft | 433 kts | 308° |
| 2026-05-05 18:54 | 47.36271 | 21.64741 | 39912 ft | 433 kts | 308° |
| 2026-05-05 18:54 | 47.39976 | 21.57818 | 39910 ft | 433 kts | 308° |
| 2026-05-05 18:55 | 47.43708 | 21.50829 | 39911 ft | 433 kts | 308° |
| 2026-05-05 18:55 | 47.47436 | 21.43828 | 39913 ft | 433 kts | 308° |
| 2026-05-05 18:56 | 47.51163 | 21.36812 | 39915 ft | 433 kts | 307° |
| 2026-05-05 18:56 | 47.54885 | 21.29786 | 39911 ft | 433 kts | 307° |
| 2026-05-05 18:57 | 47.58607 | 21.22742 | 39911 ft | 433 kts | 307° |
| 2026-05-05 18:57 | 47.62319 | 21.15700 | 39912 ft | 434 kts | 307° |
| 2026-05-05 18:58 | 47.66033 | 21.08635 | 39910 ft | 434 kts | 307° |
| 2026-05-05 18:58 | 47.69713 | 21.01616 | 39909 ft | 434 kts | 307° |
| 2026-05-05 18:59 | 47.73450 | 20.94472 | 39909 ft | 434 kts | 307° |
| 2026-05-05 18:59 | 47.77127 | 20.87423 | 39910 ft | 434 kts | 307° |
| 2026-05-05 19:00 | 47.80824 | 20.80317 | 39909 ft | 434 kts | 307° |
| 2026-05-05 19:00 | 47.84514 | 20.73206 | 39911 ft | 434 kts | 307° |
| 2026-05-05 19:01 | 47.88202 | 20.66081 | 39911 ft | 434 kts | 307° |
| 2026-05-05 19:01 | 47.91884 | 20.58947 | 39915 ft | 434 kts | 307° |
| 2026-05-05 19:02 | 47.95532 | 20.51863 | 39228 ft | 430 kts | 307° |
| 2026-05-05 19:02 | 47.97359 | 20.48306 | 38647 ft | 430 kts | 306° |
| 2026-05-05 19:02 | 47.99183 | 20.44753 | 37780 ft | 434 kts | 306° |
| 2026-05-05 19:03 | 48.01024 | 20.41160 | 37054 ft | 434 kts | 306° |
| 2026-05-05 19:03 | 48.02820 | 20.37653 | 36604 ft | 429 kts | 306° |
| 2026-05-05 19:03 | 48.04623 | 20.34129 | 36126 ft | 424 kts | 306° |
| 2026-05-05 19:03 | 48.06406 | 20.30639 | 35663 ft | 420 kts | 306° |
| 2026-05-05 19:04 | 48.08170 | 20.27181 | 35200 ft | 416 kts | 306° |
| 2026-05-05 19:04 | 48.09933 | 20.23759 | 34751 ft | 412 kts | 309° |
| 2026-05-05 19:04 | 48.11897 | 20.20645 | 34319 ft | 409 kts | 312° |
| 2026-05-05 19:04 | 48.13831 | 20.17571 | 33860 ft | 406 kts | 311° |
| 2026-05-05 19:05 | 48.15751 | 20.14478 | 33378 ft | 402 kts | 311° |
| 2026-05-05 19:05 | 48.17642 | 20.11408 | 32890 ft | 399 kts | 311° |
| 2026-05-05 19:05 | 48.19511 | 20.08364 | 32523 ft | 393 kts | 311° |
| 2026-05-05 19:05 | 48.21338 | 20.05382 | 32388 ft | 382 kts | 311° |
| 2026-05-05 19:06 | 48.23105 | 20.02494 | 32253 ft | 371 kts | 310° |
| 2026-05-05 19:06 | 48.24851 | 19.99637 | 32117 ft | 375 kts | 310° |
| 2026-05-05 19:06 | 48.26610 | 19.96756 | 31997 ft | 385 kts | 311° |
| 2026-05-05 19:06 | 48.28436 | 19.93760 | 31843 ft | 391 kts | 310° |
| 2026-05-05 19:07 | 48.30297 | 19.90705 | 31718 ft | 391 kts | 310° |
| 2026-05-05 19:07 | 48.32108 | 19.87729 | 31590 ft | 391 kts | 310° |
| 2026-05-05 19:07 | 48.33940 | 19.84714 | 31471 ft | 390 kts | 310° |
| 2026-05-05 19:07 | 48.35766 | 19.81706 | 31347 ft | 389 kts | 310° |
| 2026-05-05 19:08 | 48.37585 | 19.78705 | 31233 ft | 388 kts | 310° |
| 2026-05-05 19:08 | 48.39401 | 19.75707 | 31058 ft | 387 kts | 310° |
| 2026-05-05 19:08 | 48.41216 | 19.72707 | 30699 ft | 385 kts | 310° |
| 2026-05-05 19:08 | 48.43012 | 19.69735 | 30238 ft | 383 kts | 310° |
| 2026-05-05 19:09 | 48.44797 | 19.66778 | 29732 ft | 381 kts | 310° |
| 2026-05-05 19:09 | 48.46577 | 19.63827 | 29281 ft | 378 kts | 310° |
| 2026-05-05 19:09 | 48.48294 | 19.60846 | 28801 ft | 375 kts | 303° |
| 2026-05-05 19:09 | 48.49415 | 19.57362 | 28312 ft | 369 kts | 283° |
| 2026-05-05 19:10 | 48.49697 | 19.53565 | 27991 ft | 361 kts | 266° |
| 2026-05-05 19:10 | 48.49403 | 19.49830 | 27647 ft | 357 kts | 262° |
| 2026-05-05 19:10 | 48.49023 | 19.46165 | 27248 ft | 354 kts | 261° |
| 2026-05-05 19:10 | 48.48603 | 19.42561 | 26874 ft | 351 kts | 260° |
| 2026-05-05 19:11 | 48.48159 | 19.38962 | 26503 ft | 348 kts | 259° |
| 2026-05-05 19:11 | 48.47702 | 19.35380 | 26128 ft | 346 kts | 259° |
| 2026-05-05 19:11 | 48.47240 | 19.31840 | 25771 ft | 343 kts | 259° |
| 2026-05-05 19:11 | 48.46775 | 19.28322 | 25410 ft | 341 kts | 259° |
| 2026-05-05 19:12 | 48.46312 | 19.24842 | 25057 ft | 339 kts | 258° |
| 2026-05-05 19:12 | 48.45849 | 19.21371 | 24706 ft | 337 kts | 258° |
| 2026-05-05 19:12 | 48.45387 | 19.17926 | 24358 ft | 335 kts | 258° |
| 2026-05-05 19:12 | 48.44927 | 19.14500 | 24016 ft | 333 kts | 258° |
| 2026-05-05 19:13 | 48.44469 | 19.11093 | 23677 ft | 331 kts | 258° |
| 2026-05-05 19:13 | 48.44011 | 19.07706 | 23305 ft | 329 kts | 258° |
| 2026-05-05 19:13 | 48.43557 | 19.04345 | 22921 ft | 327 kts | 258° |
| 2026-05-05 19:13 | 48.43104 | 19.01007 | 22571 ft | 323 kts | 258° |
| 2026-05-05 19:14 | 48.42655 | 18.97702 | 22250 ft | 322 kts | 258° |
| 2026-05-05 19:14 | 48.42202 | 18.94378 | 21910 ft | 327 kts | 258° |
| 2026-05-05 19:14 | 48.41741 | 18.90998 | 21572 ft | 331 kts | 258° |
| 2026-05-05 19:14 | 48.41276 | 18.87598 | 21239 ft | 331 kts | 257° |
| 2026-05-05 19:15 | 48.40803 | 18.84216 | 20911 ft | 330 kts | 257° |
| 2026-05-05 19:15 | 48.40314 | 18.80860 | 20670 ft | 328 kts | 257° |
| 2026-05-05 19:15 | 48.39826 | 18.77505 | 20401 ft | 328 kts | 257° |
| 2026-05-05 19:15 | 48.39340 | 18.74163 | 20081 ft | 326 kts | 257° |
| 2026-05-05 19:16 | 48.38855 | 18.70837 | 19744 ft | 325 kts | 257° |
| 2026-05-05 19:16 | 48.38371 | 18.67524 | 19400 ft | 323 kts | 257° |
| 2026-05-05 19:16 | 48.37891 | 18.64239 | 19057 ft | 321 kts | 257° |
| 2026-05-05 19:16 | 48.37416 | 18.61006 | 18725 ft | 319 kts | 256° |
| 2026-05-05 19:17 | 48.36939 | 18.57760 | 18388 ft | 318 kts | 256° |
| 2026-05-05 19:17 | 48.36462 | 18.54514 | 18022 ft | 316 kts | 256° |
| 2026-05-05 19:17 | 48.35986 | 18.51291 | 17648 ft | 314 kts | 256° |
| 2026-05-05 19:17 | 48.35514 | 18.48099 | 17315 ft | 312 kts | 256° |
| 2026-05-05 19:18 | 48.35045 | 18.44932 | 16985 ft | 309 kts | 256° |
| 2026-05-05 19:18 | 48.34579 | 18.41793 | 16654 ft | 306 kts | 256° |
| 2026-05-05 19:18 | 48.34117 | 18.38689 | 16341 ft | 303 kts | 255° |
| 2026-05-05 19:18 | 48.33658 | 18.35605 | 16016 ft | 301 kts | 255° |
| 2026-05-05 19:19 | 48.33202 | 18.32557 | 15703 ft | 298 kts | 255° |
| 2026-05-05 19:19 | 48.32748 | 18.29523 | 15386 ft | 296 kts | 255° |
| 2026-05-05 19:19 | 48.32299 | 18.26525 | 15078 ft | 294 kts | 255° |
| 2026-05-05 19:19 | 48.31850 | 18.23539 | 14768 ft | 292 kts | 254° |
| 2026-05-05 19:20 | 48.31403 | 18.20568 | 14407 ft | 292 kts | 254° |
| 2026-05-05 19:20 | 48.30955 | 18.17597 | 14067 ft | 291 kts | 254° |
| 2026-05-05 19:20 | 48.30508 | 18.14638 | 13747 ft | 290 kts | 253° |
| 2026-05-05 19:20 | 48.30063 | 18.11695 | 13406 ft | 288 kts | 253° |
| 2026-05-05 19:21 | 48.29621 | 18.08773 | 13068 ft | 286 kts | 253° |
| 2026-05-05 19:21 | 48.29332 | 18.06848 | 12859 ft | 285 kts | 255° |
| 2026-05-05 19:21 | 48.29316 | 18.03843 | 12437 ft | 296 kts | 277° |
| 2026-05-05 19:21 | 48.29925 | 17.99814 | 11963 ft | 300 kts | 278° |
| 2026-05-05 19:22 | 48.30239 | 17.97748 | 11701 ft | 301 kts | 278° |
| 2026-05-05 19:22 | 48.30714 | 17.94679 | 11316 ft | 302 kts | 278° |
| 2026-05-05 19:22 | 48.31351 | 17.90598 | 10778 ft | 303 kts | 278° |
| 2026-05-05 19:22 | 48.31678 | 17.88513 | 10507 ft | 304 kts | 278° |
| 2026-05-05 19:23 | 48.32166 | 17.85411 | 10101 ft | 305 kts | 278° |
| 2026-05-05 19:23 | 48.32654 | 17.82301 | 9692 ft | 307 kts | 278° |
| 2026-05-05 19:23 | 48.33145 | 17.79166 | 9228 ft | 309 kts | 278° |
| 2026-05-05 19:23 | 48.33637 | 17.76024 | 8800 ft | 309 kts | 278° |
| 2026-05-05 19:24 | 48.34115 | 17.72970 | 8410 ft | 309 kts | 278° |
| 2026-05-05 19:24 | 48.34609 | 17.69801 | 8082 ft | 306 kts | 278° |
| 2026-05-05 19:24 | 48.35086 | 17.66737 | 7718 ft | 304 kts | 277° |
| 2026-05-05 19:24 | 48.35566 | 17.63645 | 7331 ft | 304 kts | 277° |
| 2026-05-05 19:25 | 48.36045 | 17.60558 | 6931 ft | 304 kts | 277° |
| 2026-05-05 19:25 | 48.36525 | 17.57455 | 6522 ft | 304 kts | 277° |
| 2026-05-05 19:25 | 48.36945 | 17.54345 | 6078 ft | 300 kts | 268° |
| 2026-05-05 19:25 | 48.36711 | 17.51272 | 5621 ft | 289 kts | 246° |
| 2026-05-05 19:26 | 48.35787 | 17.48701 | 5233 ft | 280 kts | 229° |
| 2026-05-05 19:26 | 48.34489 | 17.46561 | 4868 ft | 276 kts | 221° |
| 2026-05-05 19:26 | 48.33115 | 17.44561 | 4509 ft | 274 kts | 221° |
| 2026-05-05 19:26 | 48.31762 | 17.42602 | 4135 ft | 264 kts | 220° |
| 2026-05-05 19:27 | 48.30472 | 17.40731 | 3792 ft | 252 kts | 221° |
| 2026-05-05 19:27 | 48.29234 | 17.38939 | 3463 ft | 242 kts | 221° |
| 2026-05-05 19:27 | 48.28057 | 17.37234 | 3185 ft | 227 kts | 221° |
| 2026-05-05 19:27 | 48.26980 | 17.35674 | 2882 ft | 204 kts | 220° |
| 2026-05-05 19:28 | 48.26012 | 17.34271 | 2620 ft | 183 kts | 220° |
| 2026-05-05 19:28 | 48.25148 | 17.33021 | 2399 ft | 162 kts | 219° |
| 2026-05-05 19:28 | 48.24388 | 17.31918 | 2191 ft | 142 kts | 218° |
| 2026-05-05 19:28 | 48.23724 | 17.30956 | 2008 ft | 123 kts | 217° |
| 2026-05-05 19:29 | 48.23109 | 17.30073 | 1880 ft | 122 kts | 216° |
| 2026-05-05 19:29 | 48.22506 | 17.29207 | 1714 ft | 122 kts | 217° |
| 2026-05-05 19:29 | 48.21892 | 17.28318 | 1533 ft | 123 kts | 216° |
| 2026-05-05 19:29 | 48.21271 | 17.27426 | 1370 ft | 126 kts | 217° |
| 2026-05-05 19:30 | 48.20626 | 17.26493 | 1196 ft | 131 kts | 219° |
| 2026-05-05 19:30 | 48.19966 | 17.25525 | 1040 ft | 133 kts | 216° |
| 2026-05-05 19:30 | 48.19293 | 17.24553 | 815 ft | 136 kts | 219° |
| 2026-05-05 19:30 | 48.18600 | 17.23569 | 655 ft | 137 kts | 220° |
| 2026-05-05 19:31 | 48.17912 | 17.22575 | 469 ft | 137 kts | 217° |
| 2026-05-05 19:31 | 48.17291 | 17.21702 | 428 ft | 95 kts | 226° |
| 2026-05-05 19:31 | 48.16977 | 17.21240 | 421 ft | 37 kts | 224° |
| 2026-05-05 19:31 | 48.16904 | 17.21046 | 429 ft | 10 kts | 294° |
| 2026-05-05 19:32 | 48.16974 | 17.20939 | 425 ft | 20 kts | 316° |
| 2026-05-05 19:32 | 48.17028 | 17.20861 | 426 ft | 14 kts | 316° |
| 2026-05-05 19:32 | 48.17126 | 17.20717 | 424 ft | 25 kts | 314° |
| 2026-05-05 19:32 | 48.17172 | 17.20575 | 422 ft | 10 kts | 229° |
| 2026-05-05 19:33 | 48.17093 | 17.20467 | 429 ft | 21 kts | 221° |
| 2026-05-05 19:33 | 48.17030 | 17.20355 | 423 ft | 0 kts | 272° |
| 2026-05-05 19:33 | 48.17044 | 17.20328 | 430 ft | 9 kts | 313° |
| 2026-05-05 19:33 | 48.17060 | 17.20303 | 425 ft | 0 kts | 313° |